Glenrock, Wyoming
Current Conditions -  °F | °C
As of 4:53 PM on Monday 22 Dec 2014 (Local Time) from KDGW Reporting Station
Clear Clear  
Wind Chill: -8°   Ceiling: Unl
Heat Index: -2°   Visibility: 10mi
Dew Point: -6°   Wind: 17mph
Humidity: 75%   Direction: 320°NW
Pressure: 29.77"   Gusts: NA
Location:  42.86°N, 105.87°W
Report Text: KDGW 222353Z AUTO 32015KT 10SM CLR M02/M06 A2977 RMK AO2 SLP111 60000 T10171056 10028 21017 53019
Loading
Personal Weather Stations






























Interactive Weather Map New forecast layout! Learn more

10-Day Weather Forecast

Advertisements
Track Severe Weather on mobile